createdAt,value
2019-03-16T00:00:43.263Z,9.00
2019-03-16T00:03:12.340Z,9.00
2019-03-16T00:05:41.272Z,9.00
2019-03-16T00:08:10.257Z,9.00
2019-03-16T00:10:40.078Z,8.90
2019-03-16T00:13:09.129Z,9.00
2019-03-16T00:15:38.153Z,9.10
2019-03-16T00:18:07.289Z,8.90
2019-03-16T00:20:36.292Z,9.00
2019-03-16T00:23:05.330Z,8.90
2019-03-16T00:25:34.348Z,8.90
2019-03-16T00:28:03.431Z,8.90
2019-03-16T00:30:32.763Z,8.90
2019-03-16T00:33:01.734Z,8.90
2019-03-16T00:35:30.920Z,5.70
2019-03-16T00:38:00.621Z,8.90
2019-03-16T00:40:29.513Z,8.90
2019-03-16T00:42:58.576Z,8.80
2019-03-16T00:45:27.524Z,8.70
2019-03-16T00:47:56.549Z,8.80
2019-03-16T00:50:25.596Z,8.90
2019-03-16T00:52:54.542Z,8.80
2019-03-16T00:55:23.502Z,8.80
2019-03-16T00:57:52.598Z,8.80
2019-03-16T01:00:21.528Z,7.50
2019-03-16T01:02:50.638Z,8.90
2019-03-16T01:05:19.928Z,8.90
2019-03-16T01:07:48.946Z,8.80
2019-03-16T01:10:18.027Z,8.90
2019-03-16T01:12:47.045Z,8.70
2019-03-16T01:15:16.222Z,8.80
2019-03-16T01:17:45.250Z,8.80
2019-03-16T01:20:14.414Z,8.80
2019-03-16T01:22:43.410Z,8.80
2019-03-16T01:25:13.433Z,8.80
2019-03-16T01:27:42.822Z,8.80
2019-03-16T01:30:13.378Z,8.70
2019-03-16T01:32:42.364Z,8.80
2019-03-16T01:35:11.373Z,8.80
2019-03-16T01:37:40.273Z,8.70
2019-03-16T01:40:09.266Z,8.70
2019-03-16T01:42:38.385Z,8.70
2019-03-16T01:45:07.670Z,8.60
2019-03-16T01:47:36.632Z,8.70
2019-03-16T01:50:05.794Z,8.70
2019-03-16T01:52:34.881Z,8.70
2019-03-16T01:55:03.876Z,8.70
2019-03-16T01:57:32.902Z,8.70
2019-03-16T02:00:01.896Z,8.60
2019-03-16T02:02:32.543Z,8.60
2019-03-16T02:05:01.617Z,8.60
2019-03-16T02:07:30.728Z,8.60
2019-03-16T02:09:59.810Z,8.70
2019-03-16T02:12:28.834Z,8.60
2019-03-16T02:14:57.929Z,8.60
2019-03-16T02:17:26.989Z,8.60
2019-03-16T02:19:56.072Z,8.60
2019-03-16T02:22:25.108Z,8.60
2019-03-16T02:24:54.139Z,8.50
2019-03-16T02:27:23.148Z,8.60
2019-03-16T02:29:52.103Z,8.60
2019-03-16T02:32:31.536Z,8.50
2019-03-16T02:35:00.676Z,8.50
2019-03-16T02:37:29.833Z,8.50
2019-03-16T02:39:58.763Z,8.50
2019-03-16T02:42:28.149Z,8.50
2019-03-16T02:44:57.059Z,8.50
2019-03-16T02:47:26.175Z,8.50
2019-03-16T02:49:55.270Z,8.50
2019-03-16T02:52:24.343Z,8.50
2019-03-16T02:54:53.419Z,8.50
2019-03-16T02:57:22.470Z,8.50
2019-03-16T02:59:51.711Z,8.60
2019-03-16T03:02:20.845Z,8.50
2019-03-16T03:04:50.238Z,8.50
2019-03-16T03:07:19.264Z,8.50
2019-03-16T03:09:48.375Z,8.50
2019-03-16T03:12:17.356Z,8.40
2019-03-16T03:14:46.392Z,8.50
2019-03-16T03:17:15.265Z,8.40
2019-03-16T03:19:44.621Z,8.40
2019-03-16T03:22:13.719Z,8.40
2019-03-16T03:24:44.448Z,8.40
2019-03-16T03:27:13.480Z,8.40
2019-03-16T03:29:43.275Z,8.50
2019-03-16T03:32:12.231Z,8.30
2019-03-16T03:34:41.254Z,8.40
2019-03-16T03:37:10.240Z,8.40
2019-03-16T03:39:39.240Z,8.30
2019-03-16T03:42:09.137Z,8.30
2019-03-16T03:44:38.309Z,8.40
2019-03-16T03:47:07.407Z,8.30
2019-03-16T03:49:36.820Z,8.30
2019-03-16T03:52:05.925Z,8.30
2019-03-16T03:54:35.219Z,8.30
2019-03-16T03:57:04.307Z,8.30
2019-03-16T03:59:33.437Z,8.30
2019-03-16T04:02:02.539Z,8.30
2019-03-16T04:04:31.574Z,8.30
2019-03-16T04:07:00.497Z,8.30
2019-03-16T04:09:29.537Z,8.30
2019-03-16T04:11:58.582Z,8.30
2019-03-16T04:14:27.760Z,8.30
2019-03-16T04:16:56.814Z,8.20
2019-03-16T04:19:26.036Z,8.10
2019-03-16T04:21:54.968Z,8.30
2019-03-16T04:24:23.981Z,8.20
2019-03-16T04:26:53.149Z,8.20
2019-03-16T04:29:22.146Z,8.20
2019-03-16T04:31:51.249Z,8.20
2019-03-16T04:34:29.007Z,8.20
2019-03-16T04:36:51.027Z,8.20
2019-03-16T04:39:20.042Z,8.20
2019-03-16T04:41:49.374Z,8.10
2019-03-16T04:44:18.585Z,8.20
2019-03-16T04:46:47.685Z,8.20
2019-03-16T04:49:17.155Z,8.20
2019-03-16T04:51:46.337Z,8.20
2019-03-16T04:54:15.329Z,8.10
2019-03-16T04:56:44.373Z,8.20
2019-03-16T04:59:13.428Z,8.20
2019-03-16T05:01:42.384Z,8.20
2019-03-16T05:04:11.421Z,8.20
2019-03-16T05:06:40.495Z,8.20
2019-03-16T05:09:09.540Z,8.30
2019-03-16T05:11:38.614Z,8.30
2019-03-16T05:14:07.607Z,8.30
2019-03-16T05:16:36.601Z,8.30
2019-03-16T05:19:05.702Z,8.30
2019-03-16T05:21:34.761Z,8.30
2019-03-16T05:24:03.720Z,8.30
2019-03-16T05:26:32.761Z,8.30
2019-03-16T05:29:01.912Z,8.30
2019-03-16T05:31:30.972Z,8.50
2019-03-16T05:33:59.965Z,8.30
2019-03-16T05:36:29.059Z,8.30
2019-03-16T05:38:58.072Z,8.30
2019-03-16T05:41:27.046Z,8.30
2019-03-16T05:43:56.134Z,8.30
2019-03-16T05:46:25.109Z,8.30
2019-03-16T05:48:54.013Z,8.10
2019-03-16T05:51:22.996Z,8.30
2019-03-16T05:53:51.965Z,8.40
2019-03-16T05:56:21.076Z,8.40
2019-03-16T05:58:50.085Z,8.30
2019-03-16T06:01:19.088Z,8.40
2019-03-16T06:03:48.060Z,8.40
2019-03-16T06:06:16.970Z,8.40
2019-03-16T06:08:45.975Z,8.50
2019-03-16T06:11:15.026Z,8.50
2019-03-16T06:13:44.170Z,8.40
2019-03-16T06:16:13.255Z,8.40
2019-03-16T06:18:42.425Z,8.50
2019-03-16T06:21:11.442Z,8.30
2019-03-16T06:23:41.860Z,8.30
2019-03-16T06:26:10.807Z,8.30
2019-03-16T06:28:39.933Z,8.30
2019-03-16T06:31:09.049Z,8.30
2019-03-16T06:33:38.054Z,8.30
2019-03-16T06:36:07.002Z,8.30
2019-03-16T06:38:36.030Z,8.40
2019-03-16T06:41:05.038Z,8.40
2019-03-16T06:43:34.020Z,8.40
2019-03-16T06:46:02.991Z,8.40
2019-03-16T06:48:32.044Z,8.50
2019-03-16T06:51:01.294Z,8.50
2019-03-16T06:53:30.314Z,8.50
2019-03-16T06:55:59.489Z,8.50
2019-03-16T06:58:28.618Z,8.50
2019-03-16T07:00:57.817Z,8.60
2019-03-16T07:03:26.793Z,8.60
2019-03-16T07:05:55.935Z,8.50
2019-03-16T07:08:25.163Z,8.50
2019-03-16T07:10:54.311Z,8.50
2019-03-16T07:13:23.571Z,8.50
2019-03-16T07:15:52.493Z,8.50
2019-03-16T07:18:21.533Z,8.50
2019-03-16T07:20:50.972Z,8.40
2019-03-16T07:23:20.035Z,8.40
2019-03-16T07:25:49.096Z,8.40
2019-03-16T07:28:18.023Z,8.30
2019-03-16T07:30:47.121Z,8.40
2019-03-16T07:33:16.259Z,8.40
2019-03-16T07:35:45.227Z,8.40
2019-03-16T07:38:14.261Z,8.30
2019-03-16T07:40:43.164Z,8.40
2019-03-16T07:43:12.268Z,8.40
2019-03-16T07:45:41.228Z,8.30
2019-03-16T07:48:10.348Z,8.40
2019-03-16T07:50:39.353Z,8.40
2019-03-16T07:53:08.208Z,8.40
2019-03-16T07:55:36.980Z,8.40
2019-03-16T07:58:06.101Z,8.40
2019-03-16T08:00:35.081Z,8.30
2019-03-16T08:03:04.132Z,8.30
2019-03-16T08:05:33.588Z,8.30
2019-03-16T08:08:02.695Z,8.10
2019-03-16T08:10:32.050Z,8.30
2019-03-16T08:13:01.198Z,8.40
2019-03-16T08:15:31.154Z,8.30
2019-03-16T08:18:07.666Z,8.30
2019-03-16T08:20:41.624Z,8.30
2019-03-16T08:23:16.617Z,8.30
2019-03-16T08:25:52.076Z,8.30
2019-03-16T08:28:33.936Z,8.40
2019-03-16T08:31:06.616Z,8.30
2019-03-16T08:33:50.339Z,8.30
2019-03-16T08:36:19.583Z,8.60
2019-03-16T08:38:48.672Z,8.50
2019-03-16T08:41:17.621Z,8.50
2019-03-16T08:43:46.579Z,8.50
2019-03-16T08:46:28.194Z,8.60
2019-03-16T08:49:04.659Z,8.60
2019-03-16T08:51:36.880Z,8.70
2019-03-16T08:54:12.089Z,8.20
2019-03-16T08:56:50.807Z,8.60
2019-03-16T08:59:24.536Z,8.70
2019-03-16T09:01:53.696Z,8.70
2019-03-16T09:04:22.906Z,8.60
2019-03-16T09:06:52.943Z,8.60
2019-03-16T09:09:22.063Z,8.60
2019-03-16T09:11:51.013Z,8.60
2019-03-16T09:14:20.029Z,8.50
2019-03-16T09:16:49.002Z,8.50
2019-03-16T09:19:17.994Z,8.50
2019-03-16T09:21:46.978Z,8.50
2019-03-16T09:24:15.936Z,8.50
2019-03-16T09:26:45.082Z,8.60
2019-03-16T09:29:15.168Z,8.60
2019-03-16T09:31:44.401Z,8.60
2019-03-16T09:34:13.505Z,8.60
2019-03-16T09:36:42.595Z,8.60
2019-03-16T09:39:11.671Z,8.70
2019-03-16T09:41:40.481Z,8.60
2019-03-16T09:44:09.360Z,8.60
2019-03-16T09:46:38.463Z,8.50
2019-03-16T09:49:07.558Z,8.50
2019-03-16T09:51:37.616Z,8.50
2019-03-16T09:54:06.686Z,8.70
2019-03-16T09:56:35.643Z,8.40
2019-03-16T09:59:04.712Z,8.50
2019-03-16T10:01:33.700Z,8.50
2019-03-16T10:04:02.796Z,8.40
2019-03-16T10:06:32.945Z,8.30
2019-03-16T10:09:01.912Z,8.50
2019-03-16T10:11:30.990Z,8.60
2019-03-16T10:14:00.701Z,8.60
2019-03-16T10:16:29.642Z,8.60
2019-03-16T10:18:58.559Z,8.80
2019-03-16T10:21:29.022Z,8.70
2019-03-16T10:23:58.006Z,8.60
2019-03-16T10:26:27.271Z,8.50
2019-03-16T10:28:56.367Z,8.50
2019-03-16T10:31:25.363Z,8.40
2019-03-16T10:33:54.420Z,8.30
2019-03-16T10:36:23.569Z,8.30
2019-03-16T10:38:53.308Z,10.00
2019-03-16T10:41:22.328Z,8.30
2019-03-16T10:43:51.296Z,8.40
2019-03-16T10:46:20.253Z,8.50
2019-03-16T10:48:49.113Z,8.40
2019-03-16T10:51:18.097Z,8.40
2019-03-16T10:53:47.077Z,8.40
2019-03-16T10:56:16.050Z,8.50
2019-03-16T10:58:55.943Z,8.60
2019-03-16T11:01:15.718Z,8.60
2019-03-16T11:03:44.683Z,8.70
2019-03-16T11:06:13.574Z,8.80
2019-03-16T11:08:42.497Z,9.10
2019-03-16T11:11:11.443Z,9.10
2019-03-16T11:13:40.406Z,9.10
2019-03-16T11:16:09.476Z,9.00
2019-03-16T11:18:38.455Z,9.10
2019-03-16T11:21:07.464Z,9.10
2019-03-16T11:23:36.552Z,9.40
2019-03-16T11:26:05.583Z,9.40
2019-03-16T11:28:34.611Z,9.30
2019-03-16T11:31:03.663Z,9.20
2019-03-16T11:33:32.609Z,9.20
2019-03-16T11:36:01.474Z,9.20
2019-03-16T11:38:30.434Z,9.30
2019-03-16T11:40:59.373Z,9.40
2019-03-16T11:43:28.413Z,9.50
2019-03-16T11:45:57.409Z,9.70
2019-03-16T11:48:26.319Z,9.60
2019-03-16T11:50:55.387Z,9.80
2019-03-16T11:53:24.344Z,10.00
2019-03-16T11:55:54.481Z,9.90
2019-03-16T11:58:23.644Z,9.80
2019-03-16T12:00:52.680Z,9.70
2019-03-16T12:03:21.798Z,9.70
2019-03-16T12:05:50.666Z,9.40
2019-03-16T12:08:19.633Z,9.30
2019-03-16T12:10:48.506Z,9.30
2019-03-16T12:13:19.110Z,9.40
2019-03-16T12:15:51.012Z,9.50
2019-03-16T12:18:20.049Z,9.30
2019-03-16T12:20:49.084Z,9.20
2019-03-16T12:23:18.206Z,9.10
2019-03-16T12:25:49.939Z,9.30
2019-03-16T12:28:19.016Z,9.00
2019-03-16T12:30:48.095Z,8.80
2019-03-16T12:33:17.523Z,8.80
2019-03-16T12:35:46.616Z,8.80
2019-03-16T12:38:15.638Z,8.70
2019-03-16T12:40:44.630Z,8.60
2019-03-16T12:43:14.226Z,8.60
2019-03-16T12:45:43.188Z,8.40
2019-03-16T12:48:12.480Z,8.60
2019-03-16T12:50:41.849Z,8.60
2019-03-16T12:53:11.311Z,8.60
2019-03-16T12:55:40.672Z,8.70
2019-03-16T12:58:09.630Z,8.60
2019-03-16T13:00:39.032Z,8.60
2019-03-16T13:03:08.129Z,8.80
2019-03-16T13:05:40.974Z,8.90
2019-03-16T13:08:12.525Z,12.30
2019-03-16T13:10:42.731Z,8.70
2019-03-16T13:13:11.884Z,8.60
2019-03-16T13:15:41.030Z,8.40
2019-03-16T13:18:10.266Z,8.40
2019-03-16T13:20:39.354Z,8.40
2019-03-16T13:23:08.696Z,8.30
2019-03-16T13:25:38.462Z,8.40
2019-03-16T13:28:10.750Z,8.40
2019-03-16T13:30:41.906Z,8.50
2019-03-16T13:33:11.013Z,8.40
2019-03-16T13:35:41.629Z,8.30
2019-03-16T13:38:10.612Z,8.10
2019-03-16T13:40:41.540Z,8.20
2019-03-16T13:43:19.394Z,8.20
2019-03-16T13:45:48.495Z,8.40
2019-03-16T13:48:20.121Z,8.50
2019-03-16T13:50:49.169Z,8.50
2019-03-16T13:53:18.555Z,8.40
2019-03-16T13:55:53.413Z,8.30
2019-03-16T13:58:22.369Z,8.40
2019-03-16T14:00:52.320Z,8.50
2019-03-16T14:03:21.342Z,8.60
2019-03-16T14:05:50.378Z,8.70
2019-03-16T14:08:19.503Z,8.80
2019-03-16T14:10:48.582Z,9.10
2019-03-16T14:13:17.750Z,9.10
2019-03-16T14:15:46.858Z,8.90
2019-03-16T14:18:15.779Z,9.00
2019-03-16T14:20:44.729Z,9.10
2019-03-16T14:23:13.688Z,9.00
2019-03-16T14:25:42.869Z,8.90
2019-03-16T14:28:11.917Z,8.80
2019-03-16T14:30:44.800Z,8.80
2019-03-16T14:33:11.624Z,8.70
2019-03-16T14:35:40.617Z,8.70
2019-03-16T14:38:11.182Z,8.60
2019-03-16T14:40:40.083Z,8.60
2019-03-16T14:43:11.377Z,8.50
2019-03-16T14:45:39.851Z,8.50
2019-03-16T14:48:08.689Z,8.60
2019-03-16T14:50:43.890Z,8.50
2019-03-16T14:53:12.774Z,8.40
2019-03-16T14:55:41.711Z,8.40
2019-03-16T14:58:10.673Z,8.40
2019-03-16T15:00:40.029Z,8.50
2019-03-16T15:03:13.544Z,8.70
2019-03-16T15:05:45.734Z,8.60
2019-03-16T15:08:13.811Z,8.70
2019-03-16T15:10:43.941Z,8.70
2019-03-16T15:13:13.293Z,8.60
2019-03-16T15:15:42.219Z,8.60
2019-03-16T15:18:14.035Z,8.50
2019-03-16T15:20:42.968Z,8.60
2019-03-16T15:23:11.937Z,8.60
2019-03-16T15:25:40.931Z,8.60
2019-03-16T15:28:09.858Z,8.50
2019-03-16T15:30:50.079Z,8.60
2019-03-16T15:33:09.542Z,8.70
2019-03-16T15:35:38.321Z,8.60
2019-03-16T15:38:07.203Z,8.90
2019-03-16T15:40:38.371Z,10.10
2019-03-16T15:43:06.777Z,9.50
2019-03-16T15:45:35.902Z,9.00
2019-03-16T15:48:04.833Z,8.80
2019-03-16T15:50:33.784Z,8.70
2019-03-16T15:53:02.734Z,8.70
2019-03-16T15:55:31.636Z,8.80
2019-03-16T15:58:07.912Z,8.90
2019-03-16T16:00:36.003Z,8.80
2019-03-16T16:03:04.906Z,8.70
2019-03-16T16:05:33.884Z,8.70
2019-03-16T16:08:02.765Z,8.70
2019-03-16T16:10:31.745Z,8.60
2019-03-16T16:13:01.086Z,8.60
2019-03-16T16:15:30.851Z,8.70
2019-03-16T16:18:00.179Z,8.90
2019-03-16T16:20:30.600Z,8.80
2019-03-16T16:23:09.191Z,8.80
2019-03-16T16:25:38.800Z,8.70
2019-03-16T16:28:08.905Z,8.80
2019-03-16T16:30:37.902Z,8.80
2019-03-16T16:33:07.216Z,9.00
2019-03-16T16:35:36.501Z,8.90
2019-03-16T16:38:05.780Z,8.90
2019-03-16T16:40:35.284Z,9.10
2019-03-16T16:43:04.601Z,9.10
2019-03-16T16:45:33.780Z,9.50
2019-03-16T16:48:02.901Z,9.30
2019-03-16T16:50:32.131Z,9.00
2019-03-16T16:53:01.279Z,8.80
2019-03-16T16:55:30.615Z,8.70
2019-03-16T16:57:59.880Z,8.60
2019-03-16T17:00:29.198Z,8.60
2019-03-16T17:02:58.501Z,8.60
2019-03-16T17:05:27.796Z,8.50
2019-03-16T17:07:57.104Z,8.50
2019-03-16T17:10:26.181Z,8.50
2019-03-16T17:15:54.605Z,8.50
2019-03-16T17:18:29.859Z,8.50
2019-03-16T17:20:59.759Z,8.40
2019-03-16T17:23:30.810Z,8.40
2019-03-16T17:26:02.048Z,8.40
2019-03-16T17:28:31.410Z,8.40
2019-03-16T17:31:01.541Z,8.40
2019-03-16T17:33:30.884Z,8.40
2019-03-16T17:36:07.116Z,8.40
2019-03-16T17:39:22.873Z,9.60
2019-03-16T17:41:52.631Z,8.40
2019-03-16T17:44:21.902Z,8.40
2019-03-16T17:46:54.564Z,8.40
2019-03-16T17:49:23.928Z,8.40
2019-03-16T17:51:53.561Z,8.50
2019-03-16T17:54:26.372Z,8.30
2019-03-16T17:56:55.769Z,8.30
2019-03-16T17:59:25.059Z,8.30
2019-03-16T18:01:57.397Z,8.30
2019-03-16T18:04:27.844Z,8.30
2019-03-16T18:06:57.726Z,8.30
2019-03-16T18:09:27.184Z,8.30
2019-03-16T18:11:56.489Z,8.30
2019-03-16T18:14:25.549Z,8.30
2019-03-16T18:16:57.938Z,8.40
2019-03-16T18:19:30.090Z,8.40
2019-03-16T18:21:59.244Z,8.40
2019-03-16T18:24:28.694Z,8.40
2019-03-16T18:26:57.957Z,8.40
2019-03-16T18:29:29.286Z,8.40
2019-03-16T18:32:07.683Z,8.40
2019-03-16T18:34:29.601Z,8.50
2019-03-16T18:37:01.699Z,8.30
2019-03-16T18:39:30.767Z,8.30
2019-03-16T18:41:59.869Z,8.40
2019-03-16T18:44:29.114Z,8.30
2019-03-16T18:46:58.162Z,8.30
2019-03-16T18:49:27.373Z,8.30
2019-03-16T18:51:56.387Z,8.40
2019-03-16T18:54:27.668Z,8.20
2019-03-16T18:56:56.761Z,8.20
2019-03-16T18:59:25.846Z,8.20
2019-03-16T19:01:54.960Z,8.20
2019-03-16T19:04:24.054Z,8.20
2019-03-16T19:06:53.202Z,8.20
2019-03-16T19:09:22.305Z,8.20
2019-03-16T19:13:10.794Z,8.20
2019-03-16T19:23:15.008Z,8.00
2019-03-16T19:25:45.052Z,8.00
2019-03-16T19:28:18.431Z,7.90
2019-03-16T19:30:47.002Z,7.90
2019-03-16T19:33:18.524Z,7.90
2019-03-16T19:35:49.656Z,7.80
2019-03-16T19:38:20.971Z,7.70
2019-03-16T19:40:50.492Z,7.70
2019-03-16T19:43:24.162Z,7.50
2019-03-16T19:45:56.562Z,7.60
2019-03-16T19:48:30.462Z,7.50
2019-03-16T19:51:00.055Z,7.40
2019-03-16T19:53:36.782Z,7.40
2019-03-16T19:56:10.788Z,7.30
2019-03-16T19:58:45.087Z,7.20
2019-03-16T20:01:24.028Z,7.20
2019-03-16T20:03:55.954Z,7.10
2019-03-16T20:06:27.637Z,7.10
2019-03-16T20:08:58.706Z,7.10
2019-03-16T20:11:31.788Z,7.10
2019-03-16T20:14:09.634Z,7.00
2019-03-16T20:16:41.029Z,7.00
2019-03-16T20:19:27.089Z,7.00
2019-03-16T20:22:01.789Z,7.10
2019-03-16T20:24:48.959Z,7.00
2019-03-16T20:27:18.440Z,7.20
2019-03-16T20:29:49.897Z,6.90
2019-03-16T20:32:29.149Z,6.90
2019-03-16T20:35:11.671Z,6.90
2019-03-16T20:37:41.250Z,6.90
2019-03-16T20:40:14.055Z,6.90
2019-03-16T20:42:48.121Z,7.10
2019-03-16T20:45:21.159Z,7.00
2019-03-16T20:47:55.822Z,6.90
2019-03-16T20:50:29.012Z,7.10
2019-03-16T20:53:01.570Z,6.90
2019-03-16T20:55:30.998Z,7.10
2019-03-16T20:58:00.032Z,4.10
2019-03-16T21:00:29.257Z,6.90
2019-03-16T21:02:58.809Z,6.90
2019-03-16T21:05:27.889Z,6.80
2019-03-16T21:07:56.984Z,6.90
2019-03-16T21:10:26.080Z,6.90
2019-03-16T21:12:55.213Z,6.80
2019-03-16T21:15:24.391Z,6.90
2019-03-16T21:17:55.735Z,6.90
2019-03-16T21:20:24.284Z,7.00
2019-03-16T21:22:53.373Z,6.90
2019-03-16T21:25:22.369Z,6.80
2019-03-16T21:27:52.057Z,6.70
2019-03-16T21:30:22.410Z,6.80
2019-03-16T21:32:51.541Z,6.70
2019-03-16T21:35:20.742Z,6.90
2019-03-16T21:37:49.976Z,7.20
2019-03-16T21:40:19.053Z,7.40
2019-03-16T21:42:48.483Z,7.40
2019-03-16T21:45:17.808Z,7.10
2019-03-16T21:47:59.115Z,7.70
2019-03-16T21:50:18.354Z,7.70
2019-03-16T21:52:47.324Z,7.70
2019-03-16T21:55:16.470Z,7.90
2019-03-16T21:57:45.457Z,8.00
2019-03-16T22:00:16.077Z,7.90
2019-03-16T22:02:45.632Z,7.90
2019-03-16T22:05:15.158Z,8.00
2019-03-16T22:07:44.278Z,8.00
2019-03-16T22:10:13.508Z,8.00
2019-03-16T22:12:42.662Z,8.10
2019-03-16T22:15:11.684Z,8.10
2019-03-16T22:17:40.903Z,8.10
2019-03-16T22:20:11.869Z,8.10
2019-03-16T22:22:40.890Z,8.10
2019-03-16T22:25:10.280Z,8.10
2019-03-16T22:27:39.412Z,8.10
2019-03-16T22:30:08.777Z,8.20
2019-03-16T22:32:37.590Z,8.20
2019-03-16T22:35:08.918Z,8.40
2019-03-16T22:37:37.562Z,8.30
2019-03-16T22:40:06.792Z,8.30
2019-03-16T22:42:36.604Z,8.30
2019-03-16T22:45:05.874Z,8.30
2019-03-16T22:47:34.864Z,8.20
2019-03-16T22:50:04.006Z,8.20
2019-03-16T22:52:33.113Z,8.30
2019-03-16T22:55:02.121Z,8.40
2019-03-16T22:57:31.202Z,8.30
2019-03-16T23:00:00.341Z,8.40
2019-03-16T23:02:29.370Z,8.40
2019-03-16T23:04:58.380Z,8.40
2019-03-16T23:07:27.282Z,8.50
2019-03-16T23:09:56.346Z,8.40
2019-03-16T23:12:25.278Z,8.30
2019-03-16T23:14:54.231Z,8.20
2019-03-16T23:17:23.526Z,8.40
2019-03-16T23:19:52.574Z,8.20
2019-03-16T23:22:21.578Z,8.30
2019-03-16T23:24:50.457Z,8.20
2019-03-16T23:27:20.463Z,8.30
2019-03-16T23:29:49.551Z,8.20
2019-03-16T23:32:18.528Z,8.30
2019-03-16T23:34:47.507Z,8.20
2019-03-16T23:37:16.495Z,8.20
2019-03-16T23:39:45.505Z,8.10
2019-03-16T23:42:14.600Z,8.10
2019-03-16T23:44:43.582Z,8.10
2019-03-16T23:47:12.561Z,8.00
2019-03-16T23:49:41.716Z,8.10
2019-03-16T23:52:10.846Z,8.20
2019-03-16T23:54:39.867Z,8.10
2019-03-16T23:57:08.911Z,8.00
2019-03-16T23:59:37.939Z,8.00
